Hillview, Kentucky
Current Conditions -  °F | °C
As of 12:56 PM on Saturday 25 Oct 2014 (Local Time) from KSDF Reporting Station
Overcast Overcast  
Wind Chill: 67°   Ceiling: 2200
Heat Index: 67°   Visibility: 10mi
Dew Point: 56°   Wind: 14mph
Humidity: 68%   Direction: 220°SW
Pressure: 30"   Gusts: NA
Location:  38.07°N, 85.69°W
Report Text: KSDF 251656Z 22012KT 10SM OVC022 19/13 A3000 RMK AO2 SLP158 T01940133
Loading
Personal Weather Stations






























Interactive Weather Map
Tropical Storm Tracking
New forecast layout! Learn more

10-Day Weather Forecast

Advertisements
Track Severe Weather on mobile